createdAt,value
2022-10-09T00:01:09.632Z,4.30
2022-10-09T00:03:36.759Z,3.72
2022-10-09T00:06:03.470Z,4.38
2022-10-09T00:08:30.291Z,4.00
2022-10-09T00:10:56.940Z,3.70
2022-10-09T00:13:23.455Z,4.20
2022-10-09T00:15:49.836Z,3.80
2022-10-09T00:18:17.828Z,3.80
2022-10-09T00:20:45.251Z,4.00
2022-10-09T00:23:15.035Z,4.53
2022-10-09T00:25:50.155Z,3.85
2022-10-09T00:28:16.722Z,4.35
2022-10-09T00:30:43.299Z,4.32
2022-10-09T00:33:09.698Z,4.10
2022-10-09T00:35:38.228Z,4.03
2022-10-09T00:38:04.636Z,4.07
2022-10-09T00:40:31.106Z,3.97
2022-10-09T00:42:57.970Z,4.35
2022-10-09T00:45:24.544Z,4.13
2022-10-09T00:47:53.052Z,3.90
2022-10-09T00:50:20.983Z,4.15
2022-10-09T00:52:50.225Z,4.13
2022-10-09T00:55:17.099Z,3.83
2022-10-09T00:57:45.579Z,4.18
2022-10-09T01:00:13.065Z,3.80
2022-10-09T01:02:39.606Z,3.95
2022-10-09T01:05:06.808Z,4.00
2022-10-09T01:07:39.807Z,3.88
2022-10-09T01:10:09.423Z,4.38
2022-10-09T01:12:35.758Z,4.20
2022-10-09T01:15:10.138Z,3.80
2022-10-09T01:17:45.528Z,3.78
2022-10-09T01:20:22.358Z,4.10
2022-10-09T01:23:00.658Z,4.20
2022-10-09T01:25:34.432Z,3.63
2022-10-09T01:28:01.910Z,3.97
2022-10-09T01:30:29.326Z,3.85
2022-10-09T01:32:55.875Z,3.70
2022-10-09T01:35:23.010Z,3.95
2022-10-09T01:37:50.933Z,4.20
2022-10-09T01:40:18.008Z,4.15
2022-10-09T01:42:47.108Z,4.95
2022-10-09T01:45:14.117Z,4.20
2022-10-09T01:47:40.730Z,4.53
2022-10-09T01:50:21.945Z,4.47
2022-10-09T01:52:51.401Z,4.60
2022-10-09T01:55:27.724Z,4.45
2022-10-09T01:57:57.104Z,4.60
2022-10-09T02:00:24.093Z,4.00
2022-10-09T02:02:52.526Z,4.43
2022-10-09T02:05:21.163Z,4.18
2022-10-09T02:07:47.756Z,4.20
2022-10-09T02:10:15.261Z,4.53
2022-10-09T02:12:43.781Z,4.47
2022-10-09T02:15:10.588Z,4.00
2022-10-09T02:17:39.543Z,4.57
2022-10-09T02:20:24.507Z,4.13
2022-10-09T02:22:51.654Z,4.38
2022-10-09T02:25:18.515Z,4.15
2022-10-09T02:27:48.899Z,4.53
2022-10-09T02:30:15.774Z,4.32
2022-10-09T02:32:42.106Z,4.00
2022-10-09T02:35:09.025Z,4.57
2022-10-09T02:37:35.665Z,4.18
2022-10-09T02:40:10.379Z,4.85
2022-10-09T02:42:37.172Z,4.22
2022-10-09T02:45:03.647Z,4.45
2022-10-09T02:47:30.056Z,4.20
2022-10-09T02:49:56.803Z,4.55
2022-10-09T02:52:23.240Z,4.50
2022-10-09T02:54:49.581Z,4.50
2022-10-09T02:57:16.238Z,4.30
2022-10-09T02:59:45.102Z,4.45
2022-10-09T03:02:11.804Z,4.53
2022-10-09T03:04:40.464Z,4.30
2022-10-09T03:07:06.813Z,4.57
2022-10-09T03:09:33.927Z,4.38
2022-10-09T03:12:00.553Z,3.90
2022-10-09T03:14:26.975Z,4.05
2022-10-09T03:16:53.400Z,3.97
2022-10-09T03:19:19.728Z,4.18
2022-10-09T03:21:46.154Z,3.88
2022-10-09T03:24:12.605Z,4.00
2022-10-09T03:26:38.927Z,4.05
2022-10-09T03:29:05.484Z,4.30
2022-10-09T03:31:52.477Z,4.20
2022-10-09T03:34:18.611Z,4.22
2022-10-09T03:36:45.134Z,4.25
2022-10-09T03:39:11.583Z,4.10
2022-10-09T03:41:37.982Z,4.47
2022-10-09T03:44:04.430Z,4.22
2022-10-09T03:46:30.878Z,4.13
2022-10-09T03:48:57.380Z,4.38
2022-10-09T03:51:26.392Z,4.45
2022-10-09T03:53:52.724Z,4.57
2022-10-09T03:56:19.158Z,4.28
2022-10-09T03:58:45.484Z,3.85
2022-10-09T04:01:12.262Z,4.35
2022-10-09T04:03:38.613Z,3.90
2022-10-09T04:06:05.157Z,4.00
2022-10-09T04:08:31.572Z,4.32
2022-10-09T04:11:01.278Z,4.40
2022-10-09T04:13:28.225Z,3.67
2022-10-09T04:15:54.674Z,3.90
2022-10-09T04:18:21.509Z,3.80
2022-10-09T04:20:49.113Z,4.03
2022-10-09T04:23:15.510Z,4.60
2022-10-09T04:25:41.847Z,3.95
2022-10-09T04:28:10.979Z,4.40
2022-10-09T04:30:37.773Z,4.28
2022-10-09T04:33:07.025Z,4.18
2022-10-09T04:35:38.052Z,4.78
2022-10-09T04:38:04.475Z,4.50
2022-10-09T04:40:30.806Z,4.90
2022-10-09T04:42:57.178Z,4.40
2022-10-09T04:45:23.660Z,4.40
2022-10-09T04:47:50.170Z,4.32
2022-10-09T04:50:16.657Z,4.45
2022-10-09T04:52:43.042Z,5.10
2022-10-09T04:55:09.479Z,4.80
2022-10-09T04:57:35.870Z,4.93
2022-10-09T05:00:02.836Z,4.95
2022-10-09T05:02:30.514Z,4.97
2022-10-09T05:04:57.458Z,4.88
2022-10-09T05:07:24.606Z,5.13
2022-10-09T05:09:50.960Z,5.20
2022-10-09T05:12:17.359Z,5.05
2022-10-09T05:14:43.844Z,5.18
2022-10-09T05:17:14.262Z,4.85
2022-10-09T05:19:41.208Z,5.05
2022-10-09T05:22:07.692Z,4.60
2022-10-09T05:24:34.025Z,5.05
2022-10-09T05:27:00.378Z,5.03
2022-10-09T05:29:26.735Z,5.00
2022-10-09T05:31:53.240Z,5.05
2022-10-09T05:34:19.771Z,5.07
2022-10-09T05:36:46.175Z,5.13
2022-10-09T05:39:12.584Z,5.20
2022-10-09T05:41:38.955Z,4.78
2022-10-09T05:44:05.385Z,5.32
2022-10-09T05:46:31.786Z,5.18
2022-10-09T05:49:05.120Z,4.93
2022-10-09T05:51:32.445Z,5.07
2022-10-09T05:53:59.363Z,4.93
2022-10-09T05:56:29.720Z,5.03
2022-10-09T05:59:00.415Z,4.72
2022-10-09T06:01:28.220Z,4.90
2022-10-09T06:03:55.825Z,5.32
2022-10-09T06:06:23.424Z,4.82
2022-10-09T06:08:49.917Z,4.20
2022-10-09T06:11:36.639Z,4.40
2022-10-09T06:14:04.585Z,4.70
2022-10-09T06:16:32.227Z,4.57
2022-10-09T06:18:58.949Z,4.15
2022-10-09T06:21:26.641Z,3.65
2022-10-09T06:23:55.315Z,4.00
2022-10-09T06:26:22.245Z,4.35
2022-10-09T06:28:48.958Z,3.90
2022-10-09T06:31:33.692Z,3.60
2022-10-09T06:34:00.899Z,3.42
2022-10-09T06:36:28.561Z,2.90
2022-10-09T06:38:54.975Z,3.05
2022-10-09T06:41:22.765Z,3.50
2022-10-09T06:43:55.721Z,3.03
2022-10-09T06:46:24.058Z,3.00
2022-10-09T06:48:50.865Z,3.15
2022-10-09T06:51:18.514Z,3.45
2022-10-09T06:53:46.182Z,3.33
2022-10-09T06:56:12.738Z,3.10
2022-10-09T06:58:40.035Z,3.08
2022-10-09T07:01:06.506Z,2.75
2022-10-09T07:03:33.320Z,3.47
2022-10-09T07:06:10.307Z,3.38
2022-10-09T07:08:36.845Z,3.20
2022-10-09T07:11:17.332Z,2.90
2022-10-09T07:13:44.092Z,3.05
2022-10-09T07:16:11.320Z,2.80
2022-10-09T07:18:37.797Z,2.83
2022-10-09T07:21:05.718Z,2.80
2022-10-09T07:23:32.799Z,2.80
2022-10-09T07:25:59.487Z,3.38
2022-10-09T07:28:26.611Z,2.97
2022-10-09T07:30:53.461Z,2.72
2022-10-09T07:33:20.035Z,2.60
2022-10-09T07:35:56.210Z,3.20
2022-10-09T07:38:22.795Z,2.72
2022-10-09T07:40:49.268Z,2.63
2022-10-09T07:43:16.213Z,2.78
2022-10-09T07:45:42.736Z,2.55
2022-10-09T07:48:09.195Z,2.85
2022-10-09T07:50:35.979Z,2.78
2022-10-09T07:53:02.333Z,2.60
2022-10-09T07:55:28.714Z,2.70
2022-10-09T07:57:55.187Z,2.50
2022-10-09T08:00:21.512Z,2.80
2022-10-09T08:02:48.209Z,2.70
2022-10-09T08:05:14.859Z,2.70
2022-10-09T08:07:41.187Z,2.63
2022-10-09T08:10:07.779Z,2.42
2022-10-09T08:12:34.222Z,2.60
2022-10-09T08:15:00.702Z,2.78
2022-10-09T08:17:27.035Z,2.60
2022-10-09T08:19:53.383Z,3.05
2022-10-09T08:22:19.731Z,2.75
2022-10-09T08:24:46.246Z,2.53
2022-10-09T08:27:12.601Z,2.83
2022-10-09T08:29:40.379Z,3.00
2022-10-09T08:32:06.890Z,2.65
2022-10-09T08:34:33.222Z,2.63
2022-10-09T08:36:59.655Z,2.58
2022-10-09T08:39:29.490Z,3.13
2022-10-09T08:41:57.639Z,3.00
2022-10-09T08:44:25.705Z,2.70
2022-10-09T08:47:08.867Z,2.60
2022-10-09T08:49:38.357Z,2.97
2022-10-09T08:52:16.697Z,2.70
2022-10-09T08:54:43.332Z,2.65
2022-10-09T08:57:14.443Z,2.50
2022-10-09T08:59:40.853Z,2.60
2022-10-09T09:02:07.229Z,2.53
2022-10-09T09:04:53.754Z,2.42
2022-10-09T09:07:20.976Z,2.47
2022-10-09T09:10:06.735Z,2.60
2022-10-09T09:15:10.081Z,2.55
2022-10-09T09:17:42.328Z,2.40
2022-10-09T09:20:34.717Z,2.05
2022-10-09T09:23:01.459Z,2.40
2022-10-09T09:25:33.869Z,2.80
2022-10-09T09:28:02.616Z,2.47
2022-10-09T09:30:35.603Z,2.40
2022-10-09T09:33:08.795Z,2.55
2022-10-09T09:35:38.048Z,2.28
2022-10-09T09:38:04.399Z,2.53
2022-10-09T09:40:38.470Z,2.38
2022-10-09T09:43:12.026Z,2.40
2022-10-09T09:45:38.506Z,2.42
2022-10-09T09:48:09.565Z,2.20
2022-10-09T09:50:53.050Z,2.50
2022-10-09T09:53:30.289Z,2.60
2022-10-09T09:55:56.990Z,2.58
2022-10-09T09:58:26.396Z,2.20
2022-10-09T10:00:56.250Z,2.10
2022-10-09T10:03:22.994Z,2.22
2022-10-09T10:05:49.409Z,2.15
2022-10-09T10:08:21.295Z,2.05
2022-10-09T10:10:48.023Z,2.20
2022-10-09T10:13:16.713Z,2.20
2022-10-09T10:16:09.671Z,1.90
2022-10-09T10:18:41.122Z,2.50
2022-10-09T10:21:14.697Z,2.13
2022-10-09T10:23:43.030Z,2.40
2022-10-09T10:26:24.268Z,2.30
2022-10-09T10:29:01.425Z,1.88
2022-10-09T10:31:46.918Z,2.10
2022-10-09T10:34:19.446Z,1.90
2022-10-09T10:36:46.825Z,2.10
2022-10-09T10:39:18.579Z,2.13
2022-10-09T10:41:48.647Z,2.65
2022-10-09T10:44:24.120Z,1.90
2022-10-09T10:46:55.119Z,2.00
2022-10-09T10:49:22.671Z,2.22
2022-10-09T10:51:55.499Z,2.20
2022-10-09T10:54:24.908Z,2.20
2022-10-09T10:56:53.955Z,2.10
2022-10-09T10:59:35.906Z,1.80
2022-10-09T11:02:21.375Z,2.10
2022-10-09T11:05:06.084Z,2.25
2022-10-09T11:07:42.851Z,2.08
2022-10-09T11:10:21.366Z,2.20
2022-10-09T11:12:52.283Z,1.60
2022-10-09T11:15:19.840Z,2.10
2022-10-09T11:17:46.368Z,2.00
2022-10-09T11:20:12.745Z,2.10
2022-10-09T11:22:48.651Z,2.33
2022-10-09T11:25:34.583Z,2.20
2022-10-09T11:28:07.389Z,2.30
2022-10-09T11:30:39.632Z,2.08
2022-10-09T11:33:15.988Z,2.10
2022-10-09T11:35:48.566Z,2.25
2022-10-09T11:38:25.396Z,1.88
2022-10-09T11:40:53.394Z,2.10
2022-10-09T11:43:29.773Z,1.95
2022-10-09T11:46:01.347Z,2.20
2022-10-09T11:48:30.547Z,2.00
2022-10-09T11:51:06.114Z,1.95
2022-10-09T11:53:37.090Z,2.10
2022-10-09T11:56:04.831Z,2.13
2022-10-09T11:58:31.621Z,2.00
2022-10-09T12:01:09.948Z,2.10
2022-10-09T12:03:37.961Z,2.10
2022-10-09T12:06:07.010Z,2.10
2022-10-09T12:08:33.758Z,1.90
2022-10-09T12:11:07.430Z,1.80
2022-10-09T12:13:36.566Z,1.92
2022-10-09T12:16:03.690Z,1.75
2022-10-09T12:18:31.865Z,2.10
2022-10-09T12:21:00.240Z,2.00
2022-10-09T12:23:29.165Z,2.10
2022-10-09T12:25:56.228Z,2.30
2022-10-09T12:28:35.310Z,2.05
2022-10-09T12:31:03.389Z,2.30
2022-10-09T12:33:51.668Z,2.05
2022-10-09T12:36:28.541Z,2.25
2022-10-09T12:38:55.042Z,1.98
2022-10-09T12:41:23.524Z,2.05
2022-10-09T12:43:51.088Z,2.30
2022-10-09T12:46:26.768Z,2.00
2022-10-09T12:48:53.155Z,2.28
2022-10-09T12:51:22.710Z,2.22
2022-10-09T12:53:50.713Z,2.55
2022-10-09T12:56:21.081Z,2.10
2022-10-09T12:58:47.667Z,2.00
2022-10-09T13:01:14.753Z,2.08
2022-10-09T13:03:43.050Z,2.10
2022-10-09T13:06:19.749Z,2.20
2022-10-09T13:08:51.016Z,2.08
2022-10-09T13:11:17.329Z,1.85
2022-10-09T13:13:48.292Z,2.42
2022-10-09T13:16:14.912Z,2.22
2022-10-09T13:18:41.356Z,2.20
2022-10-09T13:21:17.804Z,2.33
2022-10-09T13:23:44.121Z,2.10
2022-10-09T13:26:16.101Z,2.53
2022-10-09T13:28:42.455Z,2.10
2022-10-09T13:31:09.180Z,2.13
2022-10-09T13:33:35.873Z,2.10
2022-10-09T13:36:02.260Z,2.70
2022-10-09T13:38:32.666Z,2.42
2022-10-09T13:41:00.620Z,2.60
2022-10-09T13:43:27.699Z,2.88
2022-10-09T13:45:54.132Z,2.90
2022-10-09T13:48:21.583Z,2.70
2022-10-09T13:50:48.091Z,2.45
2022-10-09T13:53:14.521Z,2.65
2022-10-09T13:55:40.866Z,2.30
2022-10-09T13:58:07.395Z,2.50
2022-10-09T14:00:34.268Z,2.10
2022-10-09T14:03:00.871Z,2.00
2022-10-09T14:05:27.304Z,2.10
2022-10-09T14:07:54.783Z,2.15
2022-10-09T14:10:23.918Z,2.20
2022-10-09T14:12:53.442Z,2.50
2022-10-09T14:15:20.127Z,2.08
2022-10-09T14:17:46.896Z,2.10
2022-10-09T14:20:13.655Z,2.20
2022-10-09T14:22:40.091Z,2.10
2022-10-09T14:25:06.874Z,1.73
2022-10-09T14:29:59.776Z,2.00
2022-10-09T14:32:26.523Z,1.80
2022-10-09T14:34:53.811Z,2.20
2022-10-09T14:37:40.092Z,2.00
2022-10-09T14:40:06.915Z,2.10
2022-10-09T14:42:33.257Z,2.00
2022-10-09T14:44:59.600Z,2.00
2022-10-09T14:47:25.944Z,2.00
2022-10-09T14:49:52.304Z,1.90
2022-10-09T14:52:18.969Z,2.22
2022-10-09T14:54:45.457Z,1.90
2022-10-09T14:57:11.876Z,2.20
2022-10-09T14:59:38.196Z,1.90
2022-10-09T15:02:04.570Z,2.47
2022-10-09T15:04:30.893Z,2.30
2022-10-09T15:06:57.257Z,2.17
2022-10-09T15:09:23.609Z,2.10
2022-10-09T15:11:49.944Z,1.90
2022-10-09T15:14:16.295Z,2.40
2022-10-09T15:16:42.717Z,2.30
2022-10-09T15:19:09.099Z,2.20
2022-10-09T15:21:35.967Z,2.10
2022-10-09T15:24:03.278Z,2.30
2022-10-09T15:26:32.799Z,2.30
2022-10-09T15:29:01.003Z,2.00
2022-10-09T15:31:34.584Z,2.20
2022-10-09T15:34:01.642Z,2.05
2022-10-09T15:36:29.106Z,2.35
2022-10-09T15:38:55.575Z,2.42
2022-10-09T15:41:22.094Z,2.53
2022-10-09T15:43:49.201Z,2.20
2022-10-09T15:46:16.025Z,3.20
2022-10-09T15:48:42.375Z,3.33
2022-10-09T15:51:13.291Z,6.75
2022-10-09T15:53:41.244Z,3.60
2022-10-09T15:56:07.855Z,2.88
2022-10-09T15:58:34.272Z,2.17
2022-10-09T16:01:05.011Z,2.42
2022-10-09T16:03:36.443Z,2.30
2022-10-09T16:06:04.690Z,2.30
2022-10-09T16:08:31.512Z,3.45
2022-10-09T16:10:58.001Z,2.95
2022-10-09T16:13:25.390Z,3.42
2022-10-09T16:15:52.252Z,3.10
2022-10-09T16:18:20.723Z,2.88
2022-10-09T16:20:47.304Z,3.22
2022-10-09T16:23:14.010Z,2.88
2022-10-09T16:25:41.093Z,2.60
2022-10-09T16:28:09.529Z,3.45
2022-10-09T16:30:39.764Z,3.45
2022-10-09T16:33:10.264Z,3.30
2022-10-09T16:35:38.703Z,3.30
2022-10-09T16:38:05.080Z,3.38
2022-10-09T16:40:57.425Z,4.60
2022-10-09T16:43:20.008Z,7.88
2022-10-09T16:45:46.385Z,5.22
2022-10-09T16:48:12.711Z,3.95
2022-10-09T16:50:40.767Z,3.72
2022-10-09T16:53:07.480Z,3.25
2022-10-09T16:55:33.942Z,4.13
2022-10-09T16:58:00.297Z,5.82
2022-10-09T17:00:26.766Z,7.07
2022-10-09T17:02:53.134Z,4.63
2022-10-09T17:05:20.313Z,4.18
2022-10-09T17:07:47.123Z,4.50
2022-10-09T17:10:16.192Z,4.30
2022-10-09T17:12:42.574Z,6.10
2022-10-09T17:15:09.070Z,10.35
2022-10-09T17:17:35.488Z,9.73
2022-10-09T17:20:01.937Z,10.73
2022-10-09T17:22:28.282Z,8.82
2022-10-09T17:24:54.614Z,8.80
2022-10-09T17:27:21.086Z,9.82
2022-10-09T17:29:47.507Z,7.82
2022-10-09T17:32:14.080Z,7.28
2022-10-09T17:34:45.641Z,13.60
2022-10-09T17:37:12.521Z,15.93
2022-10-09T17:39:38.909Z,8.85
2022-10-09T17:42:05.311Z,7.25
2022-10-09T17:44:32.046Z,9.15
2022-10-09T17:46:58.427Z,8.48
2022-10-09T17:49:24.791Z,17.63
2022-10-09T17:51:52.692Z,16.23
2022-10-09T17:54:19.086Z,26.05
2022-10-09T17:56:45.573Z,10.32
2022-10-09T17:59:12.358Z,16.17
2022-10-09T18:01:38.755Z,18.77
2022-10-09T18:04:05.347Z,11.38
2022-10-09T18:06:33.245Z,13.63
2022-10-09T18:09:00.251Z,8.52
2022-10-09T18:11:26.998Z,9.73
2022-10-09T18:13:53.652Z,9.90
2022-10-09T18:16:24.989Z,11.30
2022-10-09T18:18:51.563Z,10.90
2022-10-09T18:21:17.967Z,11.10
2022-10-09T18:23:45.595Z,11.05
2022-10-09T18:26:13.404Z,10.77
2022-10-09T18:28:41.767Z,9.82
2022-10-09T18:31:12.001Z,9.75
2022-10-09T18:33:38.524Z,9.60
2022-10-09T18:36:06.087Z,10.80
2022-10-09T18:38:32.686Z,11.68
2022-10-09T18:40:59.446Z,10.52
2022-10-09T18:43:25.811Z,10.93
2022-10-09T18:45:52.165Z,12.30
2022-10-09T18:48:18.759Z,11.15
2022-10-09T18:50:45.211Z,12.73
2022-10-09T18:53:11.866Z,11.80
2022-10-09T18:55:38.873Z,10.95
2022-10-09T18:58:05.625Z,13.18
2022-10-09T19:00:32.055Z,14.02
2022-10-09T19:02:58.492Z,13.07
2022-10-09T19:05:26.073Z,13.38
2022-10-09T19:07:52.630Z,13.73
2022-10-09T19:10:19.161Z,16.38
2022-10-09T19:12:45.801Z,15.32
2022-10-09T19:15:12.526Z,15.13
2022-10-09T19:17:39.050Z,14.32
2022-10-09T19:20:05.695Z,15.02
2022-10-09T19:22:32.103Z,14.68
2022-10-09T19:25:00.143Z,15.80
2022-10-09T19:27:27.325Z,16.45
2022-10-09T19:29:54.220Z,15.70
2022-10-09T19:32:23.947Z,13.90
2022-10-09T19:34:50.659Z,15.50
2022-10-09T19:37:17.092Z,18.00
2022-10-09T19:39:48.556Z,20.55
2022-10-09T19:42:15.657Z,33.58
2022-10-09T19:44:45.896Z,16.73
2022-10-09T19:47:13.426Z,14.45
2022-10-09T19:49:40.369Z,16.10
2022-10-09T19:52:06.958Z,16.30
2022-10-09T19:54:34.687Z,15.82
2022-10-09T19:57:01.223Z,14.77
2022-10-09T19:59:28.304Z,13.88
2022-10-09T20:01:57.490Z,14.88
2022-10-09T20:04:24.309Z,15.20
2022-10-09T20:06:50.763Z,14.82
2022-10-09T20:09:17.222Z,15.68
2022-10-09T20:11:43.670Z,16.88
2022-10-09T20:14:10.816Z,15.68
2022-10-09T20:16:37.255Z,15.52
2022-10-09T20:19:04.492Z,15.27
2022-10-09T20:21:34.727Z,15.40
2022-10-09T20:24:01.379Z,15.57
2022-10-09T20:26:28.543Z,20.45
2022-10-09T20:28:55.041Z,19.05
2022-10-09T20:31:23.037Z,28.98
2022-10-09T20:33:49.940Z,17.98
2022-10-09T20:36:18.836Z,16.70
2022-10-09T20:38:45.218Z,16.80
2022-10-09T20:41:12.006Z,16.15
2022-10-09T20:43:40.149Z,14.52
2022-10-09T20:46:10.471Z,13.05
2022-10-09T20:48:36.925Z,13.45
2022-10-09T20:51:03.730Z,13.65
2022-10-09T20:53:30.135Z,13.05
2022-10-09T20:56:00.380Z,14.73
2022-10-09T20:58:27.370Z,13.35
2022-10-09T21:00:53.901Z,13.23
2022-10-09T21:03:20.280Z,14.48
2022-10-09T21:05:46.737Z,13.27
2022-10-09T21:08:13.116Z,12.90
2022-10-09T21:10:43.673Z,13.32
2022-10-09T21:13:10.069Z,13.20
2022-10-09T21:15:43.465Z,14.00
2022-10-09T21:18:10.208Z,13.00
2022-10-09T21:20:37.374Z,13.43
2022-10-09T21:23:03.824Z,13.23
2022-10-09T21:25:30.228Z,12.77
2022-10-09T21:27:56.554Z,12.50
2022-10-09T21:30:22.933Z,11.93
2022-10-09T21:32:49.663Z,12.88
2022-10-09T21:35:16.289Z,12.50
2022-10-09T21:37:42.615Z,11.45
2022-10-09T21:40:09.150Z,11.23
2022-10-09T21:42:36.204Z,10.45
2022-10-09T21:45:02.752Z,8.75
2022-10-09T21:47:30.428Z,11.43
2022-10-09T21:49:56.805Z,12.68
2022-10-09T21:52:23.375Z,10.85
2022-10-09T21:54:49.709Z,10.25
2022-10-09T21:57:16.041Z,11.30
2022-10-09T21:59:42.550Z,10.23
2022-10-09T22:02:08.873Z,9.90
2022-10-09T22:04:35.272Z,10.00
2022-10-09T22:07:01.613Z,9.90
2022-10-09T22:09:27.968Z,9.18
2022-10-09T22:11:54.352Z,10.48
2022-10-09T22:14:20.746Z,9.23
2022-10-09T22:16:47.159Z,9.60
2022-10-09T22:19:13.712Z,8.38
2022-10-09T22:21:42.134Z,9.13
2022-10-09T22:24:08.526Z,8.82
2022-10-09T22:26:34.900Z,8.95
2022-10-09T22:29:01.490Z,8.13
2022-10-09T22:31:28.299Z,8.65
2022-10-09T22:33:58.690Z,8.40
2022-10-09T22:36:26.121Z,7.55
2022-10-09T22:38:53.424Z,8.82
2022-10-09T22:41:20.575Z,8.00
2022-10-09T22:43:48.256Z,8.35
2022-10-09T22:46:16.179Z,7.88
2022-10-09T22:48:43.021Z,8.30
2022-10-09T22:51:10.850Z,7.45
2022-10-09T22:53:38.301Z,7.47
2022-10-09T22:56:05.784Z,6.82
2022-10-09T22:58:32.444Z,6.63
2022-10-09T23:01:01.841Z,7.05
2022-10-09T23:03:28.156Z,6.65
2022-10-09T23:05:54.991Z,6.93
2022-10-09T23:08:21.340Z,6.60
2022-10-09T23:10:47.783Z,7.15
2022-10-09T23:13:14.178Z,7.13
2022-10-09T23:15:40.536Z,6.38
2022-10-09T23:18:06.973Z,6.60
2022-10-09T23:20:35.491Z,7.35
2022-10-09T23:23:01.856Z,6.85
2022-10-09T23:25:28.232Z,6.78
2022-10-09T23:27:54.598Z,6.88
2022-10-09T23:30:20.945Z,6.90
2022-10-09T23:32:47.438Z,7.05
2022-10-09T23:35:14.013Z,5.85
2022-10-09T23:37:40.388Z,6.05
2022-10-09T23:40:07.105Z,5.72
2022-10-09T23:42:33.432Z,6.55
2022-10-09T23:44:59.859Z,6.43
2022-10-09T23:47:26.237Z,7.20
2022-10-09T23:49:52.598Z,6.57
2022-10-09T23:52:18.968Z,6.38
2022-10-09T23:54:45.287Z,6.03
2022-10-09T23:57:11.750Z,6.80
2022-10-09T23:59:39.410Z,6.07
